Time,TemperatureF,DewpointF,PressureIn,WindDirection,WindDirectionDegrees,WindSpeedMPH,WindSpeedGustMPH,Humidity,HourlyPrecipIn,Conditions,Clouds,dailyrainin,SoftwareType,DateUTC
2013-04-11 00:02:00,75.0,72.0,29.76,SW,214,4.0,9.0,89,0.00,,,0.00,,2013-04-11 05:02:00,
2013-04-11 00:13:00,75.0,72.0,29.76,SW,223,3.0,7.0,89,0.00,,,0.00,,2013-04-11 05:13:00,
2013-04-11 00:22:00,75.0,72.0,29.76,SW,223,3.0,7.0,89,0.00,,,0.00,,2013-04-11 05:22:00,
2013-04-11 00:32:00,75.0,72.0,29.75,SSW,205,3.0,8.0,90,0.00,,,0.00,,2013-04-11 05:32:00,
2013-04-11 00:42:00,75.0,72.0,29.75,SSW,205,3.0,8.0,90,0.00,,,0.00,,2013-04-11 05:42:00,
2013-04-11 00:52:00,75.0,72.0,29.75,SSW,205,3.0,8.0,90,0.00,,,0.00,,2013-04-11 05:52:00,
2013-04-11 01:02:00,75.0,72.0,29.75,WSW,240,2.0,9.0,90,0.00,,,0.00,,2013-04-11 06:02:00,
2013-04-11 01:12:00,75.0,72.0,29.75,WSW,240,2.0,9.0,90,0.00,,,0.00,,2013-04-11 06:12:00,
2013-04-11 01:22:00,75.0,72.0,29.74,SW,220,2.0,7.0,90,0.00,,,0.00,,2013-04-11 06:22:00,
2013-04-11 01:32:00,75.0,72.0,29.74,WSW,241,2.0,7.0,90,0.00,,,0.00,,2013-04-11 06:32:00,
2013-04-11 01:42:00,75.0,72.0,29.74,WSW,241,2.0,7.0,90,0.00,,,0.00,,2013-04-11 06:42:00,
2013-04-11 01:52:00,75.0,72.0,29.74,WSW,241,2.0,7.0,90,0.00,,,0.00,,2013-04-11 06:52:00,
2013-04-11 02:02:00,75.0,72.0,29.72,WSW,254,3.0,14.0,90,0.00,,,0.00,,2013-04-11 07:02:00,
2013-04-11 02:12:00,75.0,72.0,29.72,WSW,254,3.0,14.0,90,0.00,,,0.00,,2013-04-11 07:12:00,
2013-04-11 02:22:00,75.0,72.0,29.73,South,176,0.0,8.0,91,0.00,,,0.00,,2013-04-11 07:22:00,
2013-04-11 02:32:00,75.0,72.0,29.73,South,176,0.0,8.0,91,0.00,,,0.00,,2013-04-11 07:32:00,
2013-04-11 02:42:00,75.0,73.0,29.72,WSW,254,2.0,6.0,93,0.00,,,0.00,,2013-04-11 07:42:00,
2013-04-11 02:52:00,75.0,73.0,29.72,WSW,254,2.0,6.0,93,0.00,,,0.00,,2013-04-11 07:52:00,
2013-04-11 03:02:00,74.0,72.0,29.71,SSE,148,1.0,3.0,94,0.00,,,0.00,,2013-04-11 08:02:00,
2013-04-11 03:12:00,74.0,72.0,29.71,SSE,148,1.0,3.0,94,0.00,,,0.00,,2013-04-11 08:12:00,
2013-04-11 03:22:00,74.0,72.0,29.71,WSW,237,2.0,5.0,95,0.00,,,0.00,,2013-04-11 08:22:00,
2013-04-11 03:32:00,74.0,72.0,29.71,WSW,254,0.0,6.0,95,0.00,,,0.00,,2013-04-11 08:32:00,
2013-04-11 03:42:00,74.0,72.0,29.71,WSW,254,0.0,6.0,95,0.00,,,0.00,,2013-04-11 08:42:00,
2013-04-11 03:51:00,74.0,72.0,29.71,WSW,254,0.0,6.0,95,0.00,,,0.00,,2013-04-11 08:51:00,
2013-04-11 04:02:00,74.0,72.0,29.68,SSW,210,0.0,7.0,95,0.00,,,0.00,,2013-04-11 09:02:00,
2013-04-11 04:12:00,74.0,72.0,29.67,South,184,0.0,6.0,95,0.00,,,0.00,,2013-04-11 09:12:00,
2013-04-11 04:22:00,74.0,72.0,29.67,South,184,0.0,6.0,95,0.00,,,0.00,,2013-04-11 09:22:00,
2013-04-11 04:33:00,74.0,73.0,29.68,SW,227,2.0,5.0,96,0.00,,,0.00,,2013-04-11 09:33:00,
2013-04-11 04:43:00,74.0,73.0,29.68,SW,227,2.0,5.0,96,0.00,,,0.00,,2013-04-11 09:43:00,
2013-04-11 04:52:00,74.0,73.0,29.68,SW,227,2.0,5.0,96,0.00,,,0.00,,2013-04-11 09:52:00,
2013-04-11 05:02:00,74.0,73.0,29.68,SW,227,2.0,5.0,96,0.00,,,0.00,,2013-04-11 10:02:00,
2013-04-11 05:12:00,73.0,72.0,29.68,WSW,244,2.0,5.0,96,0.00,,,0.00,,2013-04-11 10:12:00,
2013-04-11 05:23:00,73.0,72.0,29.68,WSW,244,2.0,5.0,96,0.00,,,0.00,,2013-04-11 10:23:00,
2013-04-11 05:32:00,74.0,73.0,29.66,SW,219,0.0,3.0,96,0.00,,,0.00,,2013-04-11 10:32:00,
2013-04-11 05:42:00,74.0,73.0,29.66,SW,219,0.0,3.0,96,0.00,,,0.00,,2013-04-11 10:42:00,
2013-04-11 05:50:00,73.0,72.0,29.67,West,268,2.0,5.0,96,0.00,,,0.00,,2013-04-11 10:50:00,
2013-04-11 05:52:00,73.0,72.0,29.66,SW,219,0.0,0.0,96,0.00,,,0.00,,2013-04-11 10:52:00,
2013-04-11 06:02:00,73.0,72.0,29.66,SW,219,0.0,0.0,96,0.00,,,0.00,,2013-04-11 11:02:00,
2013-04-11 06:12:00,73.0,72.0,29.67,West,268,2.0,5.0,96,0.00,,,0.00,,2013-04-11 11:12:00,
2013-04-11 06:22:00,73.0,72.0,29.67,West,268,2.0,5.0,96,0.00,,,0.00,,2013-04-11 11:22:00,
2013-04-11 06:32:00,73.0,72.0,29.67,West,268,2.0,5.0,96,0.00,,,0.00,,2013-04-11 11:32:00,
2013-04-11 06:42:00,73.0,72.0,29.67,West,268,2.0,5.0,96,0.00,,,0.00,,2013-04-11 11:42:00,
2013-04-11 07:13:00,57.0,56.0,29.70,NNE,32,7.0,13.0,98,0.23,,,0.23,,2013-04-11 12:13:00,
2013-04-11 07:23:00,57.0,56.0,29.70,NNE,32,7.0,13.0,98,0.23,,,0.23,,2013-04-11 12:23:00,
2013-04-11 07:32:00,56.0,55.0,29.72,NE,43,6.0,10.0,98,0.24,,,0.24,,2013-04-11 12:32:00,
2013-04-11 07:43:00,56.0,55.0,29.72,NE,43,6.0,10.0,98,0.24,,,0.24,,2013-04-11 12:43:00,
2013-04-11 07:52:00,55.0,54.0,29.73,NNE,24,6.0,9.0,98,0.25,,,0.25,,2013-04-11 12:52:00,
2013-04-11 08:02:00,55.0,54.0,29.73,NNE,24,6.0,9.0,98,0.25,,,0.25,,2013-04-11 13:02:00,
2013-04-11 08:12:00,55.0,54.0,29.73,NE,34,7.0,13.0,98,0.09,,,0.25,,2013-04-11 13:12:00,
2013-04-11 08:22:00,55.0,54.0,29.73,NE,34,7.0,13.0,98,0.09,,,0.25,,2013-04-11 13:22:00,
2013-04-11 08:32:00,54.0,53.0,29.75,NNE,26,9.0,16.0,98,0.04,,,0.28,,2013-04-11 13:32:00,
2013-04-11 08:43:00,54.0,53.0,29.75,NNE,26,9.0,16.0,98,0.04,,,0.28,,2013-04-11 13:43:00,
2013-04-11 08:52:00,54.0,53.0,29.75,NNE,26,9.0,16.0,98,0.04,,,0.28,,2013-04-11 13:52:00,
2013-04-11 09:02:00,52.0,51.0,29.80,NNE,16,11.0,20.0,98,0.36,,,0.61,,2013-04-11 14:02:00,
2013-04-11 09:12:00,52.0,52.0,29.77,NNE,33,7.0,17.0,99,0.37,,,0.62,,2013-04-11 14:12:00,
2013-04-11 09:20:00,53.0,53.0,29.79,NNE,26,7.0,15.0,99,0.39,,,0.71,,2013-04-11 14:20:00,
2013-04-11 09:22:00,52.0,52.0,29.77,NNE,33,7.0,17.0,99,0.37,,,0.62,,2013-04-11 14:22:00,
2013-04-11 09:32:00,53.0,53.0,29.79,NNE,26,7.0,15.0,99,0.39,,,0.71,,2013-04-11 14:32:00,
2013-04-11 09:42:00,53.0,53.0,29.79,NNE,26,7.0,15.0,99,0.39,,,0.71,,2013-04-11 14:42:00,
2013-04-11 09:52:00,53.0,53.0,29.79,NNE,26,7.0,15.0,99,0.39,,,0.71,,2013-04-11 14:52:00,
2013-04-11 10:02:00,53.0,53.0,29.79,NNE,26,7.0,15.0,99,0.39,,,0.71,,2013-04-11 15:02:00,
2013-04-11 10:12:00,53.0,53.0,29.79,NNE,26,7.0,15.0,99,0.39,,,0.71,,2013-04-11 15:12:00,
2013-04-11 10:32:00,53.0,53.0,29.85,North,1,7.0,16.0,99,0.35,,,1.04,,2013-04-11 15:32:00,
2013-04-11 10:43:00,53.0,53.0,29.86,NNE,21,5.0,13.0,99,0.33,,,1.08,,2013-04-11 15:43:00,
2013-04-11 10:53:00,53.0,53.0,29.86,NNE,21,5.0,13.0,99,0.33,,,1.08,,2013-04-11 15:53:00,
2013-04-11 11:02:00,53.0,53.0,29.87,North,0,6.0,10.0,99,0.19,,,1.08,,2013-04-11 16:02:00,
2013-04-11 11:12:00,53.0,53.0,29.87,North,0,6.0,10.0,99,0.19,,,1.08,,2013-04-11 16:12:00,
2013-04-11 11:22:00,53.0,53.0,29.87,North,0,6.0,10.0,99,0.19,,,1.08,,2013-04-11 16:22:00,
2013-04-11 11:32:00,53.0,53.0,29.87,North,0,6.0,10.0,99,0.19,,,1.08,,2013-04-11 16:32:00,
2013-04-11 11:41:00,54.0,53.0,29.85,NNE,18,6.0,18.0,98,0.00,,,1.08,,2013-04-11 16:41:00,
2013-04-11 11:53:00,54.0,53.0,29.85,NNE,18,6.0,18.0,98,0.00,,,1.08,,2013-04-11 16:53:00,
2013-04-11 12:02:00,55.0,54.0,29.85,NNE,19,7.0,13.0,98,0.00,,,1.08,,2013-04-11 17:02:00,
2013-04-11 12:12:00,55.0,54.0,29.85,NNE,19,7.0,13.0,98,0.00,,,1.08,,2013-04-11 17:12:00,
2013-04-11 12:23:00,55.0,54.0,29.85,NNE,19,7.0,13.0,98,0.00,,,1.08,,2013-04-11 17:23:00,
2013-04-11 12:32:00,57.0,56.0,29.83,NNE,13,5.0,13.0,96,0.00,,,1.08,,2013-04-11 17:32:00,
2013-04-11 12:42:00,57.0,56.0,29.83,NNE,13,5.0,13.0,96,0.00,,,1.08,,2013-04-11 17:42:00,
2013-04-11 12:53:00,57.0,56.0,29.82,NNE,21,7.0,14.0,95,0.00,,,1.08,,2013-04-11 17:53:00,
2013-04-11 13:03:00,57.0,56.0,29.78,NNE,19,1.0,7.0,96,0.00,,,1.08,,2013-04-11 18:03:00,
2013-04-11 13:13:00,57.0,56.0,29.78,NNE,19,1.0,7.0,96,0.00,,,1.08,,2013-04-11 18:13:00,
2013-04-11 13:22:00,58.0,57.0,29.77,NE,46,2.0,7.0,97,0.00,,,1.08,,2013-04-11 18:22:00,
2013-04-11 13:32:00,59.0,57.0,29.74,ENE,61,2.0,8.0,93,0.00,,,1.08,,2013-04-11 18:32:00,
2013-04-11 13:42:00,59.0,57.0,29.74,ENE,61,2.0,8.0,93,0.00,,,1.08,,2013-04-11 18:42:00,
2013-04-11 13:52:00,59.0,57.0,29.74,ENE,61,2.0,8.0,93,0.00,,,1.08,,2013-04-11 18:52:00,
2013-04-11 14:03:00,59.0,57.0,29.75,NNE,18,4.0,8.0,93,0.00,,,1.08,,2013-04-11 19:03:00,
2013-04-11 14:13:00,59.0,57.0,29.75,NNE,18,4.0,8.0,93,0.00,,,1.08,,2013-04-11 19:13:00,
2013-04-11 14:22:00,59.0,57.0,29.75,NNE,18,4.0,8.0,93,0.00,,,1.08,,2013-04-11 19:22:00,
2013-04-11 14:32:00,61.0,58.0,29.78,North,6,5.0,12.0,89,0.00,,,1.08,,2013-04-11 19:32:00,
2013-04-11 14:42:00,61.0,58.0,29.78,North,6,5.0,12.0,89,0.00,,,1.08,,2013-04-11 19:42:00,
2013-04-11 14:53:00,61.0,57.0,29.78,NNW,338,5.0,14.0,88,0.00,,,1.08,,2013-04-11 19:53:00,
2013-04-11 15:02:00,61.0,58.0,29.78,NNE,20,6.0,12.0,89,0.00,,,1.08,,2013-04-11 20:02:00,
2013-04-11 15:13:00,61.0,58.0,29.78,NNE,20,6.0,12.0,89,0.00,,,1.08,,2013-04-11 20:13:00,
2013-04-11 15:22:00,61.0,58.0,29.78,NNE,20,6.0,12.0,89,0.00,,,1.08,,2013-04-11 20:22:00,
2013-04-11 15:33:00,61.0,58.0,29.78,NNE,20,6.0,12.0,89,0.00,,,1.08,,2013-04-11 20:33:00,
2013-04-11 15:42:00,61.0,58.0,29.78,NNE,20,6.0,12.0,89,0.00,,,1.08,,2013-04-11 20:42:00,
2013-04-11 15:52:00,61.0,58.0,29.77,NNE,13,5.0,12.0,89,0.00,,,1.08,,2013-04-11 20:52:00,
2013-04-11 16:03:00,61.0,58.0,29.77,NNE,13,5.0,12.0,89,0.00,,,1.08,,2013-04-11 21:03:00,
2013-04-11 16:12:00,61.0,58.0,29.77,NNE,13,5.0,12.0,89,0.00,,,1.08,,2013-04-11 21:12:00,
2013-04-11 16:22:00,63.0,59.0,29.77,NNE,14,3.0,10.0,87,0.00,,,1.08,,2013-04-11 21:22:00,
2013-04-11 16:33:00,65.0,59.0,29.75,NNW,331,3.0,10.0,80,0.00,,,1.08,,2013-04-11 21:33:00,
2013-04-11 16:42:00,65.0,59.0,29.75,NNW,331,3.0,10.0,80,0.00,,,1.08,,2013-04-11 21:42:00,
2013-04-11 16:50:00,65.0,59.0,29.75,NNE,13,5.0,10.0,80,0.00,,,1.08,,2013-04-11 21:50:00,
2013-04-11 16:53:00,65.0,59.0,29.75,NNW,331,3.0,10.0,80,0.00,,,1.08,,2013-04-11 21:53:00,
2013-04-11 17:03:00,65.0,59.0,29.75,NNE,13,5.0,10.0,80,0.00,,,1.08,,2013-04-11 22:03:00,
2013-04-11 17:13:00,65.0,59.0,29.75,NNE,13,5.0,10.0,80,0.00,,,1.08,,2013-04-11 22:13:00,
2013-04-11 17:23:00,65.0,59.0,29.75,NNE,13,5.0,10.0,80,0.00,,,1.08,,2013-04-11 22:23:00,
2013-04-11 17:33:00,65.0,59.0,29.75,NNE,13,5.0,10.0,80,0.00,,,1.08,,2013-04-11 22:33:00,
2013-04-11 17:44:00,65.0,59.0,29.75,NNE,13,5.0,10.0,80,0.00,,,1.08,,2013-04-11 22:44:00,
2013-04-11 18:03:00,65.0,58.0,29.76,North,3,3.0,9.0,77,0.00,,,1.08,,2013-04-11 23:03:00,
2013-04-11 18:13:00,65.0,58.0,29.76,North,3,3.0,9.0,77,0.00,,,1.08,,2013-04-11 23:13:00,
2013-04-11 18:23:00,65.0,58.0,29.76,NNW,337,2.0,8.0,77,0.00,,,1.08,,2013-04-11 23:23:00,
2013-04-11 18:32:00,65.0,58.0,29.78,North,358,5.0,9.0,77,0.00,,,1.08,,2013-04-11 23:32:00,
2013-04-11 18:42:00,65.0,58.0,29.78,North,358,5.0,9.0,77,0.00,,,1.08,,2013-04-11 23:42:00,
2013-04-11 18:52:00,65.0,58.0,29.77,North,4,3.0,7.0,78,0.00,,,1.08,,2013-04-11 23:52:00,
2013-04-11 19:02:00,64.0,57.0,29.76,North,11,6.0,10.0,77,0.00,,,1.08,,2013-04-12 00:02:00,
2013-04-11 19:12:00,64.0,57.0,29.76,North,11,6.0,10.0,77,0.00,,,1.08,,2013-04-12 00:12:00,
2013-04-11 19:22:00,63.0,57.0,29.75,NNE,23,3.0,7.0,80,0.00,,,1.08,,2013-04-12 00:22:00,
2013-04-11 19:32:00,62.0,56.0,29.77,NNE,12,2.0,8.0,81,0.00,,,1.08,,2013-04-12 00:32:00,
2013-04-11 19:42:00,62.0,56.0,29.77,NNE,12,2.0,8.0,81,0.00,,,1.08,,2013-04-12 00:42:00,
2013-04-11 19:52:00,61.0,56.0,29.79,NNW,333,0.0,0.0,83,0.00,,,1.08,,2013-04-12 00:52:00,
2013-04-11 20:02:00,60.0,55.0,29.80,NNW,333,0.0,0.0,85,0.00,,,1.08,,2013-04-12 01:02:00,
2013-04-11 20:12:00,60.0,55.0,29.80,NNW,333,0.0,0.0,85,0.00,,,1.08,,2013-04-12 01:12:00,
2013-04-11 20:22:00,59.0,55.0,29.81,NNW,333,0.0,0.0,87,0.00,,,1.08,,2013-04-12 01:22:00,
2013-04-11 20:32:00,59.0,55.0,29.81,NNW,333,0.0,0.0,87,0.00,,,1.08,,2013-04-12 01:32:00,
2013-04-11 20:42:00,59.0,55.0,29.81,NNW,333,0.0,0.0,87,0.00,,,1.08,,2013-04-12 01:42:00,
2013-04-11 20:52:00,56.0,54.0,29.83,NNW,333,0.0,0.0,93,0.00,,,1.08,,2013-04-12 01:52:00,
2013-04-11 21:03:00,55.0,54.0,29.84,NNW,333,0.0,0.0,95,0.00,,,1.08,,2013-04-12 02:03:00,
2013-04-11 21:12:00,55.0,54.0,29.84,NNW,333,0.0,0.0,95,0.00,,,1.08,,2013-04-12 02:12:00,
2013-04-11 21:22:00,54.0,53.0,29.84,NNW,333,0.0,0.0,96,0.00,,,1.08,,2013-04-12 02:22:00,
2013-04-11 21:32:00,54.0,53.0,29.86,NNW,333,0.0,0.0,96,0.00,,,1.08,,2013-04-12 02:32:00,
2013-04-11 21:42:00,54.0,53.0,29.86,NNW,333,0.0,0.0,96,0.00,,,1.08,,2013-04-12 02:42:00,
2013-04-11 21:52:00,54.0,53.0,29.87,NNW,333,0.0,0.0,96,0.00,,,1.08,,2013-04-12 02:52:00,
2013-04-11 22:02:00,53.0,52.0,29.88,NNW,333,0.0,0.0,97,0.00,,,1.08,,2013-04-12 03:02:00,
2013-04-11 22:12:00,53.0,52.0,29.88,NNW,333,0.0,0.0,97,0.00,,,1.08,,2013-04-12 03:12:00,
2013-04-11 22:22:00,53.0,52.0,29.89,NNW,333,0.0,0.0,97,0.00,,,1.08,,2013-04-12 03:22:00,
2013-04-11 22:33:00,53.0,52.0,29.90,NNE,16,0.0,2.0,97,0.00,,,1.08,,2013-04-12 03:33:00,
2013-04-11 22:43:00,53.0,52.0,29.90,NNE,16,0.0,2.0,97,0.00,,,1.08,,2013-04-12 03:43:00,
2013-04-11 22:52:00,53.0,52.0,29.90,North,10,0.0,0.0,97,0.00,,,1.08,,2013-04-12 03:52:00,
2013-04-11 23:03:00,53.0,52.0,29.90,North,10,0.0,0.0,97,0.00,,,1.08,,2013-04-12 04:03:00,
2013-04-11 23:13:00,53.0,52.0,29.90,North,10,0.0,0.0,97,0.00,,,1.08,,2013-04-12 04:13:00,
2013-04-11 23:22:00,52.0,51.0,29.90,NNE,27,1.0,3.0,97,0.00,,,1.08,,2013-04-12 04:22:00,
2013-04-11 23:33:00,53.0,52.0,29.90,NNE,18,1.0,5.0,97,0.00,,,1.08,,2013-04-12 04:33:00,
2013-04-11 23:43:00,53.0,52.0,29.90,NNE,18,1.0,5.0,97,0.00,,,1.08,,2013-04-12 04:43:00,
2013-04-11 23:53:00,54.0,53.0,29.90,NNE,20,0.0,1.0,96,0.00,,,1.08,,2013-04-12 04:53:00,